PILOTS ONLINE: 532    ATC ONLINE: 112

KFOE - Forbes Field

Location

IATA FOE
City Topeka
Country  United States
Latitude 38° 57' 3" N
Longitude 95° 39' 48" W
Elevation 1078 ft
Type Medium Airport

Runways

03/21 7000 ft / 150 ft
13/31 12802 ft / 200 ft

Weather

METAR
2014/07/24 16:53
KFOE 241653Z 11012KT 10SM CLR 28/16 A3013 RMK AO2 SLP192 T02780161
TAF
2014/07/24 18:24
TAF KFOE 241721Z 2418/2518 13013KT P6SM SCT250 
     FM251000 17013KT P6SM BKN200

Outbound flights

Inbound flights